• Join FlightAware (Why Join?)
  • Login
  • US Flag 
09:21PM EDT


 

Airport Tracker/Info


-or-


 

Live Flight TrackerFlight Track Log ✈ EJA396 ✈ 11-Dec-2013 ✈ KCRQ - KSFO

Flight Track Log - Related Links

Times and Time Zones

All times are in EST time to prevent confusion due to time zone crossing. See the EJA396 flight status page for this flight to view local times or setup timezone preferences in your user account.

Time Position Orientation Groundspeed Altitude Reporting Facility
EST Latitude Longitude Course Direction KTS MPH feet Rate Location/Type
07:25PM 33.1203 -117.3389 310° West 213 245 2,200  Level Los Angeles Center
07:26PM 33.1136 -117.4089 264° West 223 257 4,600 2,400 Climbing Los Angeles Center
07:27PM 33.0917 -117.4958 253° West 259 298 7,300 2,460 Climbing Los Angeles Center
07:28PM 33.0539 -117.5800 242° Southwest 282 325 9,700 2,520 Climbing Los Angeles Center
07:29PM 33.0475 -117.6778 266° West 316 364 12,500 3,060 Climbing Los Angeles Center
07:30PM 33.1353 -117.7650 320° Northwest 339 390 16,100 3,300 Climbing Los Angeles Center
07:31PM 33.5756 -117.7530 310° West  Level Estimated
07:31PM 33.2067 -117.8436 317° Northwest 347 399 19,400  Level Los Angeles Center
07:32PM 33.2622 -117.9528 301° West 375 432 22,700 2,220 Climbing Los Angeles Center
07:34PM 33.3281 -118.0681 304° West 415 478 24,000 1,440 Climbing Los Angeles Center
07:35PM 33.4092 -118.1806 311° West 440 506 26,000 840 Climbing Los Angeles Center
07:36PM 33.5067 -118.3194 310° West 447 514 26,000 600 Level Los Angeles Center
07:37PM 33.5875 -118.4353 310° West 447 514 27,300 2,220 Climbing Los Angeles Center
07:38PM 33.6822 -118.5703 310° West 433 498 30,600 2,520 Climbing Los Angeles Center
07:39PM 33.7600 -118.6803 310° West 429 494 32,600 1,680 Climbing Los Angeles Center
07:40PM 33.8386 -118.7947 310° West 438 504 34,100 1,440 Climbing Los Angeles Center
07:41PM 33.9181 -118.9097 310° West 445 512 35,600 900 Climbing Los Angeles Center
07:42PM 33.9989 -119.0256 310° West 449 517 36,000 180 Climbing Los Angeles Center
07:43PM 34.0808 -119.1453 310° West 461 531 36,000  Level Los Angeles Center
07:44PM 34.1644 -119.2667 310° West 469 540 36,000  Level Los Angeles Center
07:45PM 34.2619 -119.4100 309° West 461 531 36,000  Level Los Angeles Center
07:46PM 34.3436 -119.5308 309° West 462 532 36,000  Level Los Angeles Center
07:47PM 34.4250 -119.6500 310° West 461 531 36,000  Level Los Angeles Center
07:48PM 34.5072 -119.7681 310° West 459 528 36,000  Level Los Angeles Center
07:49PM 34.6047 -119.8775 317° Northwest 458 527 36,000  Level Los Angeles Center
07:50PM 34.7008 -119.9792 319° Northwest 458 527 36,000  Level Los Angeles Center
07:52PM 34.7956 -120.0828 318° Northwest 457 526 36,000  Level Los Angeles Center
07:53PM 34.8972 -120.1947 318° Northwest 460 529 36,000  Level Los Angeles Center
07:54PM 35.0094 -120.3183 318° Northwest 459 528 36,000  Level Los Angeles Center
07:55PM 35.1225 -120.4439 318° Northwest 461 531 36,000  Level Los Angeles Center
07:56PM 35.2178 -120.5486 318° Northwest 463 533 36,000  Level Los Angeles Center
07:57PM 35.3131 -120.6564 317° Northwest 468 539 36,000  Level Los Angeles Center
07:58PM 35.4089 -120.7625 318° Northwest 467 537 36,000  Level Los Angeles Center
07:59PM 35.5125 -120.8561 324° Northwest 465 535 36,000  Level Los Angeles Center
08:00PM 35.6425 -120.9697 325° Northwest 461 531 36,000  Level Los Angeles Center
08:01PM 35.7058 -121.0253 325° Northwest 461 531 36,000  Level Oakland Center
08:02PM 35.8092 -121.1175 324° Northwest 459 528 36,000  Level Oakland Center
08:03PM 35.9117 -121.2072 325° Northwest 451 519 36,000 -540 Level Oakland Center
08:04PM 36.0289 -121.3125 324° Northwest 434 499 35,000 -1,020 Descending Oakland Center
08:05PM 36.1289 -121.4031 324° Northwest 443 510 34,000 -1,020 Descending Oakland Center
08:06PM 36.2333 -121.4947 325° Northwest 458 527 33,000 -1,080 Descending Oakland Center
08:07PM 36.3347 -121.5894 323° Northwest 456 525 31,800 -1,440 Descending Oakland Center
08:08PM 36.4386 -121.6786 325° Northwest 456 525 30,100 -1,920 Descending Oakland Center
08:09PM 36.5406 -121.7733 323° Northwest 458 527 28,000 -2,160 Descending Oakland Center
08:10PM 36.6467 -121.8731 323° Northwest 454 522 25,800 -2,100 Descending Oakland Center
08:11PM 36.7431 -121.9597 324° Northwest 430 495 23,700 -2,400 Descending Oakland Center
08:12PM 36.8517 -121.9922 347° North 400 460 21,000 -3,000 Descending Oakland Center
08:13PM 36.9583 -122.0217 348° North 391 450 17,700 -3,540 Descending Oakland Center
08:14PM 37.0544 -122.0475 348° North 358 412 13,900 -3,840 Descending Oakland Center
08:15PM 37.1494 -122.0708 349° North 350 403 9,900 -2,700 Descending Oakland Center
08:16PM 37.2433 -122.0972 347° North 284 327 8,400 -1,260 Descending Oakland Center
08:17PM 37.3214 -122.1175 348° North 284 327 7,400 -1,020 Descending Oakland Center
08:18PM 37.3978 -122.1375 348° North 284 327 6,400 -1,020 Descending Oakland Center
08:19PM 37.4606 -122.1542 348° North 238 274 5,400 -1,200 Descending Oakland Center
08:20PM 37.5194 -122.1733 346° North 221 254 4,000 -1,140 Descending Oakland Center
08:21PM 37.5561 -122.2322 308° West 218 251 3,200 -1,140 Descending Oakland Center
08:22PM 37.5775 -122.2808 299° West 183 211 1,700 -1,260 Descending Oakland Center
08:23PM 37.5936 -122.3175 299° West 144 166 700 -780 Descending Oakland Center
08:24PM 37.6117 -122.3567 300° West 131 151 200 -540 Descending Oakland Center
08:26PM 37.6167 -122.3667 322° Northwest  Level FlightAware Approximate